Tokuyo Maru No.15 — JD2184 — position and weather

sailwx.info

Track history (hours):
 
Tides and Currents Weather Stations Pressure Air Temp Water Temp Dewpoint Dewpoint Depression Visibility Wind Speed Wind Dir Waves Ship Positions

Tokuyo Maru No.15

Last reported at 2015-Jul-31 12:29 UTC. Time now 2015-Aug-01 13:54 UTC.
Position N 34°10' E 134°59'.

Length 66 m; draft 4.5 m.

Type: Tanker. MMSI: 431402034.

Date/timePositionNaut miles runAvg speedWind from/ knotsBaromVisibWave heightAir tempDewpointWater temp
2015-Jul-31 12:29N 34°10' E 134°59'4 0.4
2015-Jul-31 00:18N 34°06' E 135°00'  
2015-Jul-28 07:28N 34°11' E 134°59'2010.6
2015-Jul-28 05:33N 34°28' E 135°12'12 1.9
2015-Jul-27 23:14N 34°33' E 135°25'5 0.9
2015-Jul-27 18:09N 34°32' E 135°20'0 0.0
2015-Jul-27 17:33N 34°32' E 135°20'0 0.0
2015-Jul-27 16:33N 34°32' E 135°20'0 0.0
2015-Jul-27 14:27N 34°32' E 135°20'0 0.0
2015-Jul-27 13:33N 34°32' E 135°20'0 0.0
2015-Jul-27 12:33N 34°32' E 135°20'0 0.0
2015-Jul-27 11:27N 34°32' E 135°20'0 0.0
2015-Jul-27 10:33N 34°32' E 135°20'0 0.0
2015-Jul-27 07:09N 34°32' E 135°20'0 0.0
2015-Jul-27 06:33N 34°32' E 135°20'0 0.0
2015-Jul-27 05:27N 34°32' E 135°20'5 6.0
2015-Jul-27 04:33N 34°29' E 135°14'2211.1
2015-Jul-27 02:33N 34°10' E 135°00'5 0.1
2015-Jul-25 09:21N 34°06' E 134°60'911.7
2015-Jul-25 08:33N 34°15' E 134°59'1010.2
2015-Jul-25 07:32N 34°24' E 135°05'1111.4
2015-Jul-25 06:33N 34°31' E 135°16'8 1.5
2015-Jul-25 01:24N 34°32' E 135°25'6 6.8
2015-Jul-25 00:34N 34°31' E 135°18'2510.7
2015-Jul-24 22:14N 34°12' E 134°60'  
Track history (hours):
 
Tides and Currents Weather Stations Pressure Air Temp Water Temp Dewpoint Dewpoint Depression Visibility Wind Speed Wind Dir Waves Ship Positions

Tokuyo Maru No.15

Last reported at 2015-Jul-31 12:29 UTC. Time now 2015-Aug-01 13:54 UTC.
Position N 34°10' E 134°59'.

Length 66 m; draft 4.5 m.

Type: Tanker. MMSI: 431402034.

Date/timePositionNaut miles runAvg speedWind from/ knotsBaromVisibWave heightAir tempDewpointWater temp
2015-Jul-31 12:29N 34°10' E 134°59'4 0.4
2015-Jul-31 00:18N 34°06' E 135°00'  
2015-Jul-28 07:28N 34°11' E 134°59'2010.6
2015-Jul-28 05:33N 34°28' E 135°12'12 1.9
2015-Jul-27 23:14N 34°33' E 135°25'5 0.9
2015-Jul-27 18:09N 34°32' E 135°20'0 0.0
2015-Jul-27 17:33N 34°32' E 135°20'0 0.0
2015-Jul-27 16:33N 34°32' E 135°20'0 0.0
2015-Jul-27 14:27N 34°32' E 135°20'0 0.0
2015-Jul-27 13:33N 34°32' E 135°20'0 0.0
2015-Jul-27 12:33N 34°32' E 135°20'0 0.0
2015-Jul-27 11:27N 34°32' E 135°20'0 0.0
2015-Jul-27 10:33N 34°32' E 135°20'0 0.0
2015-Jul-27 07:09N 34°32' E 135°20'0 0.0
2015-Jul-27 06:33N 34°32' E 135°20'0 0.0
2015-Jul-27 05:27N 34°32' E 135°20'5 6.0
2015-Jul-27 04:33N 34°29' E 135°14'2211.1
2015-Jul-27 02:33N 34°10' E 135°00'5 0.1
2015-Jul-25 09:21N 34°06' E 134°60'911.7
2015-Jul-25 08:33N 34°15' E 134°59'1010.2
2015-Jul-25 07:32N 34°24' E 135°05'1111.4
2015-Jul-25 06:33N 34°31' E 135°16'8 1.5
2015-Jul-25 01:24N 34°32' E 135°25'6 6.8
2015-Jul-25 00:34N 34°31' E 135°18'2510.7
2015-Jul-24 22:14N 34°12' E 134°60'  

Dump ship's entire track history